createdAt,value
2017-06-03T00:00:39.230Z,16.30
2017-06-03T00:03:07.512Z,16.20
2017-06-03T00:05:36.584Z,16.00
2017-06-03T00:08:04.969Z,16.00
2017-06-03T00:10:33.341Z,16.00
2017-06-03T00:13:01.629Z,15.90
2017-06-03T00:15:29.894Z,15.90
2017-06-03T00:17:58.234Z,15.80
2017-06-03T00:20:26.552Z,15.80
2017-06-03T00:22:54.828Z,15.80
2017-06-03T00:25:23.104Z,15.80
2017-06-03T00:27:51.381Z,15.80
2017-06-03T00:30:19.761Z,15.70
2017-06-03T00:32:48.027Z,15.60
2017-06-03T00:35:16.417Z,15.60
2017-06-03T00:37:44.694Z,15.60
2017-06-03T00:40:12.979Z,15.60
2017-06-03T00:42:41.357Z,15.50
2017-06-03T00:45:09.730Z,15.50
2017-06-03T00:47:38.008Z,15.40
2017-06-03T00:50:06.381Z,15.40
2017-06-03T00:52:34.644Z,15.40
2017-06-03T00:55:02.947Z,15.30
2017-06-03T00:57:31.355Z,15.20
2017-06-03T01:00:00.422Z,15.20
2017-06-03T01:02:28.792Z,15.20
2017-06-03T01:04:57.068Z,15.10
2017-06-03T01:07:25.358Z,15.10
2017-06-03T01:09:54.444Z,15.10
2017-06-03T01:12:22.812Z,15.10
2017-06-03T01:14:51.085Z,15.00
2017-06-03T01:17:19.398Z,15.00
2017-06-03T01:19:47.652Z,15.00
2017-06-03T01:22:16.042Z,14.90
2017-06-03T01:24:44.310Z,14.90
2017-06-03T01:27:12.688Z,14.90
2017-06-03T01:29:40.968Z,14.80
2017-06-03T01:32:09.267Z,14.80
2017-06-03T01:34:37.519Z,14.80
2017-06-03T01:37:05.806Z,14.80
2017-06-03T01:39:34.176Z,14.70
2017-06-03T01:42:02.450Z,14.70
2017-06-03T01:44:30.840Z,14.70
2017-06-03T01:46:59.217Z,14.60
2017-06-03T01:49:27.588Z,14.70
2017-06-03T01:51:55.970Z,14.60
2017-06-03T01:54:24.241Z,14.60
2017-06-03T01:56:52.499Z,14.60
2017-06-03T01:59:20.782Z,14.60
2017-06-03T02:01:49.046Z,14.60
2017-06-03T02:04:17.363Z,14.50
2017-06-03T02:06:45.627Z,14.60
2017-06-03T02:09:13.989Z,14.50
2017-06-03T02:11:42.261Z,14.40
2017-06-03T02:14:10.562Z,14.50
2017-06-03T02:16:38.855Z,14.50
2017-06-03T02:19:07.119Z,14.40
2017-06-03T02:21:35.599Z,14.50
2017-06-03T02:24:03.854Z,14.50
2017-06-03T02:26:32.150Z,14.50
2017-06-03T02:29:00.423Z,14.40
2017-06-03T02:31:28.808Z,14.40
2017-06-03T02:33:57.104Z,14.40
2017-06-03T02:36:25.384Z,14.30
2017-06-03T02:38:53.636Z,14.30
2017-06-03T02:41:21.939Z,14.20
2017-06-03T02:43:50.205Z,14.20
2017-06-03T02:46:18.485Z,14.20
2017-06-03T02:48:46.766Z,14.10
2017-06-03T02:51:15.061Z,14.10
2017-06-03T02:53:43.415Z,14.10
2017-06-03T02:56:11.685Z,14.10
2017-06-03T02:58:40.074Z,14.20
2017-06-03T03:01:08.440Z,14.20
2017-06-03T03:03:36.819Z,14.10
2017-06-03T03:06:05.073Z,14.10
2017-06-03T03:08:33.373Z,14.10
2017-06-03T03:11:01.620Z,14.10
2017-06-03T03:13:29.929Z,14.10
2017-06-03T03:15:58.208Z,14.10
2017-06-03T03:18:26.494Z,14.00
2017-06-03T03:20:54.855Z,14.10
2017-06-03T03:23:23.234Z,14.10
2017-06-03T03:25:51.501Z,14.10
2017-06-03T03:28:19.793Z,14.20
2017-06-03T03:30:48.064Z,14.20
2017-06-03T03:33:16.399Z,14.20
2017-06-03T03:35:44.732Z,14.20
2017-06-03T03:38:13.103Z,14.20
2017-06-03T03:40:41.478Z,14.20
2017-06-03T03:43:09.748Z,14.30
2017-06-03T03:45:38.048Z,14.40
2017-06-03T03:48:07.109Z,14.40
2017-06-03T03:50:35.385Z,14.40
2017-06-03T03:53:03.665Z,14.50
2017-06-03T03:55:31.964Z,14.50
2017-06-03T03:58:00.227Z,14.50
2017-06-03T04:00:28.512Z,14.40
2017-06-03T04:02:57.550Z,14.60
2017-06-03T04:05:25.873Z,14.60
2017-06-03T04:07:54.145Z,14.60
2017-06-03T04:10:22.420Z,14.70
2017-06-03T04:12:50.806Z,14.80
2017-06-03T04:15:19.088Z,14.70
2017-06-03T04:17:47.374Z,14.70
2017-06-03T04:20:15.737Z,14.70
2017-06-03T04:22:44.111Z,14.70
2017-06-03T04:25:12.397Z,14.70
2017-06-03T04:27:40.800Z,14.60
2017-06-03T04:30:09.953Z,14.60
2017-06-03T04:32:38.229Z,14.60
2017-06-03T04:35:06.494Z,14.60
2017-06-03T04:37:34.801Z,14.70
2017-06-03T04:40:03.076Z,14.70
2017-06-03T04:42:31.461Z,14.60
2017-06-03T04:44:59.728Z,14.70
2017-06-03T04:47:28.018Z,14.70
2017-06-03T04:49:56.278Z,14.80
2017-06-03T04:52:24.667Z,14.80
2017-06-03T04:54:52.937Z,14.90
2017-06-03T04:57:21.203Z,14.90
2017-06-03T04:59:49.512Z,15.00
2017-06-03T05:02:17.790Z,15.00
2017-06-03T05:04:46.159Z,15.10
2017-06-03T05:07:14.468Z,15.10
2017-06-03T05:09:42.757Z,15.20
2017-06-03T05:12:11.038Z,15.30
2017-06-03T05:14:39.332Z,15.30
2017-06-03T05:17:07.703Z,15.40
2017-06-03T05:19:35.975Z,15.30
2017-06-03T05:22:04.243Z,15.40
2017-06-03T05:24:32.741Z,15.50
2017-06-03T05:27:01.802Z,15.50
2017-06-03T05:29:30.094Z,15.50
2017-06-03T05:31:58.364Z,15.40
2017-06-03T05:34:26.664Z,15.40
2017-06-03T05:36:54.949Z,15.50
2017-06-03T05:39:23.213Z,15.60
2017-06-03T05:41:51.488Z,15.60
2017-06-03T05:44:19.761Z,15.60
2017-06-03T05:46:48.043Z,15.70
2017-06-03T05:49:16.316Z,15.70
2017-06-03T05:51:44.695Z,15.80
2017-06-03T05:54:12.980Z,15.80
2017-06-03T05:56:41.353Z,15.90
2017-06-03T05:59:09.609Z,16.10
2017-06-03T06:01:37.909Z,16.10
2017-06-03T06:04:06.168Z,16.20
2017-06-03T06:06:34.505Z,16.30
2017-06-03T06:09:02.792Z,16.30
2017-06-03T06:11:31.053Z,16.40
2017-06-03T06:13:59.332Z,16.40
2017-06-03T06:16:27.665Z,16.50
2017-06-03T06:18:55.968Z,16.60
2017-06-03T06:21:24.223Z,16.70
2017-06-03T06:23:52.600Z,16.80
2017-06-03T06:26:20.896Z,16.90
2017-06-03T06:28:49.158Z,17.20
2017-06-03T06:31:17.425Z,17.30
2017-06-03T06:33:45.812Z,17.40
2017-06-03T06:36:14.088Z,17.60
2017-06-03T06:38:42.468Z,17.70
2017-06-03T06:41:10.750Z,17.90
2017-06-03T06:43:39.054Z,18.00
2017-06-03T06:46:08.080Z,18.20
2017-06-03T06:48:36.372Z,18.20
2017-06-03T06:51:04.641Z,18.40
2017-06-03T06:53:32.908Z,18.50
2017-06-03T06:56:01.198Z,18.70
2017-06-03T06:58:29.500Z,18.80
2017-06-03T07:00:57.893Z,19.00
2017-06-03T07:03:26.174Z,19.10
2017-06-03T07:05:54.448Z,19.10
2017-06-03T07:08:22.710Z,19.30
2017-06-03T07:10:50.991Z,19.50
2017-06-03T07:13:19.250Z,19.60
2017-06-03T07:15:47.537Z,19.60
2017-06-03T07:18:15.806Z,19.70
2017-06-03T07:20:44.107Z,19.90
2017-06-03T07:23:12.363Z,20.00
2017-06-03T07:25:40.847Z,20.10
2017-06-03T07:28:09.108Z,20.40
2017-06-03T07:30:37.405Z,20.60
2017-06-03T07:33:05.681Z,20.80
2017-06-03T07:35:33.956Z,21.00
2017-06-03T07:38:02.234Z,21.20
2017-06-03T07:40:30.614Z,21.40
2017-06-03T07:42:58.890Z,21.50
2017-06-03T07:45:27.151Z,21.50
2017-06-03T07:47:55.439Z,21.60
2017-06-03T07:50:23.725Z,21.60
2017-06-03T07:52:52.016Z,21.60
2017-06-03T07:55:20.294Z,21.70
2017-06-03T07:57:48.657Z,21.80
2017-06-03T08:00:16.946Z,22.00
2017-06-03T08:02:45.222Z,22.00
2017-06-03T08:05:13.497Z,22.10
2017-06-03T08:07:41.772Z,22.10
2017-06-03T08:10:10.043Z,22.30
2017-06-03T08:12:38.357Z,22.50
2017-06-03T08:15:07.387Z,22.90
2017-06-03T08:17:35.650Z,22.90
2017-06-03T08:20:03.982Z,23.20
2017-06-03T08:22:32.249Z,23.10
2017-06-03T08:25:00.527Z,23.10
2017-06-03T08:27:28.795Z,23.10
2017-06-03T08:29:57.074Z,23.20
2017-06-03T08:32:25.352Z,23.40
2017-06-03T08:34:53.733Z,23.60
2017-06-03T08:37:22.012Z,23.60
2017-06-03T08:39:50.317Z,23.70
2017-06-03T08:42:19.390Z,23.60
2017-06-03T08:44:47.701Z,23.60
2017-06-03T08:47:15.964Z,23.60
2017-06-03T08:49:45.039Z,23.80
2017-06-03T08:52:13.322Z,23.70
2017-06-03T08:54:42.360Z,24.10
2017-06-03T08:57:10.672Z,24.00
2017-06-03T08:59:38.933Z,24.20
2017-06-03T09:02:07.328Z,24.50
2017-06-03T09:04:35.607Z,24.80
2017-06-03T09:07:03.883Z,25.10
2017-06-03T09:09:32.156Z,25.20
2017-06-03T09:12:00.425Z,25.40
2017-06-03T09:14:28.680Z,25.50
2017-06-03T09:16:56.988Z,25.40
2017-06-03T09:19:25.267Z,25.50
2017-06-03T09:21:53.524Z,25.60
2017-06-03T09:24:21.814Z,25.60
2017-06-03T09:26:50.106Z,25.40
2017-06-03T09:29:18.416Z,25.20
2017-06-03T09:31:46.691Z,25.20
2017-06-03T09:34:15.740Z,24.90
2017-06-03T09:36:44.034Z,24.90
2017-06-03T09:39:12.301Z,24.70
2017-06-03T09:41:40.680Z,24.40
2017-06-03T09:44:08.956Z,24.20
2017-06-03T09:46:37.209Z,24.00
2017-06-03T09:49:05.514Z,23.80
2017-06-03T09:51:33.788Z,23.60
2017-06-03T09:54:02.081Z,23.40
2017-06-03T09:56:30.352Z,23.30
2017-06-03T09:58:58.620Z,23.20
2017-06-03T10:01:26.994Z,23.10
2017-06-03T10:03:55.283Z,23.00
2017-06-03T10:06:23.560Z,23.10
2017-06-03T10:08:51.827Z,23.00
2017-06-03T10:11:20.101Z,23.20
2017-06-03T10:13:48.400Z,23.20
2017-06-03T10:16:16.779Z,23.20
2017-06-03T10:18:45.058Z,23.30
2017-06-03T10:21:13.438Z,23.50
2017-06-03T10:23:41.689Z,23.60
2017-06-03T10:26:10.007Z,23.70
2017-06-03T10:28:38.369Z,23.70
2017-06-03T10:31:06.660Z,23.80
2017-06-03T10:33:35.031Z,23.70
2017-06-03T10:36:03.296Z,23.80
2017-06-03T10:38:31.570Z,23.80
2017-06-03T10:40:59.847Z,23.80
2017-06-03T10:43:28.243Z,23.80
2017-06-03T10:45:56.506Z,23.70
2017-06-03T10:48:24.893Z,23.60
2017-06-03T10:50:53.174Z,23.40
2017-06-03T10:53:21.445Z,23.40
2017-06-03T10:55:49.720Z,23.20
2017-06-03T10:58:17.969Z,23.10
2017-06-03T11:00:46.254Z,22.80
2017-06-03T11:03:14.517Z,22.60
2017-06-03T11:05:42.815Z,22.40
2017-06-03T11:08:11.074Z,22.40
2017-06-03T11:10:39.476Z,22.10
2017-06-03T11:13:07.849Z,22.00
2017-06-03T11:15:36.126Z,21.80
2017-06-03T11:18:04.508Z,21.70
2017-06-03T11:20:32.784Z,21.60
2017-06-03T11:23:01.075Z,21.40
2017-06-03T11:25:29.343Z,21.40
2017-06-03T11:27:57.723Z,21.20
2017-06-03T11:30:25.988Z,21.00
2017-06-03T11:32:54.244Z,20.70
2017-06-03T11:35:22.555Z,20.60
2017-06-03T11:37:50.832Z,20.50
2017-06-03T11:40:19.117Z,20.30
2017-06-03T11:42:47.394Z,20.20
2017-06-03T11:45:15.694Z,20.20
2017-06-03T11:47:44.737Z,20.10
2017-06-03T11:50:13.044Z,20.10
2017-06-03T11:52:41.330Z,20.10
2017-06-03T11:55:09.611Z,20.20
2017-06-03T11:57:37.925Z,20.20
2017-06-03T12:00:06.202Z,20.20
2017-06-03T12:02:34.536Z,20.30
2017-06-03T12:05:02.919Z,20.40
2017-06-03T12:07:31.303Z,20.30
2017-06-03T12:09:59.575Z,20.40
2017-06-03T12:12:27.851Z,20.60
2017-06-03T12:14:56.130Z,20.70
2017-06-03T12:17:24.410Z,20.60
2017-06-03T12:19:53.010Z,20.50
2017-06-03T12:22:21.265Z,20.40
2017-06-03T12:24:49.587Z,20.50
2017-06-03T12:27:17.870Z,20.60
2017-06-03T12:29:46.148Z,20.50
2017-06-03T12:32:14.528Z,20.50
2017-06-03T12:34:42.804Z,20.50
2017-06-03T12:37:11.186Z,20.40
2017-06-03T12:39:39.454Z,20.40
2017-06-03T12:42:07.724Z,20.30
2017-06-03T12:44:36.014Z,20.20
2017-06-03T12:47:04.390Z,19.90
2017-06-03T12:49:32.648Z,19.70
2017-06-03T12:52:00.913Z,19.60
2017-06-03T12:54:29.221Z,19.60
2017-06-03T12:56:57.512Z,19.60
2017-06-03T12:59:25.893Z,19.50
2017-06-03T13:01:54.194Z,19.40
2017-06-03T13:04:23.242Z,19.40
2017-06-03T13:06:51.508Z,19.40
2017-06-03T13:09:20.022Z,19.40
2017-06-03T13:11:48.300Z,19.50
2017-06-03T13:14:16.592Z,19.60
2017-06-03T13:16:44.896Z,19.80
2017-06-03T13:19:13.156Z,19.90
2017-06-03T13:21:42.238Z,20.10
2017-06-03T13:24:10.492Z,20.10
2017-06-03T13:26:38.904Z,20.20
2017-06-03T13:29:07.164Z,20.20
2017-06-03T13:31:35.537Z,20.30
2017-06-03T13:34:03.820Z,20.40
2017-06-03T13:36:32.099Z,20.40
2017-06-03T13:39:00.471Z,20.30
2017-06-03T13:41:28.772Z,20.30
2017-06-03T13:43:57.065Z,20.20
2017-06-03T13:46:26.102Z,20.10
2017-06-03T13:48:54.414Z,20.10
2017-06-03T13:51:22.673Z,20.00
2017-06-03T13:53:51.076Z,20.00
2017-06-03T13:56:19.370Z,20.00
2017-06-03T13:58:47.666Z,19.90
2017-06-03T14:01:16.141Z,19.90
2017-06-03T14:03:44.411Z,20.10
2017-06-03T14:06:12.705Z,20.20
2017-06-03T14:08:40.980Z,20.30
2017-06-03T14:11:09.301Z,20.70
2017-06-03T14:13:37.556Z,21.20
2017-06-03T14:16:05.964Z,21.40
2017-06-03T14:18:34.285Z,21.60
2017-06-03T14:21:02.573Z,21.80
2017-06-03T14:23:30.845Z,22.00
2017-06-03T14:25:59.127Z,22.40
2017-06-03T14:28:27.502Z,22.80
2017-06-03T14:30:55.773Z,23.40
2017-06-03T14:33:24.057Z,23.70
2017-06-03T14:35:52.328Z,23.90
2017-06-03T14:38:20.633Z,24.00
2017-06-03T14:40:49.715Z,24.20
2017-06-03T14:43:17.981Z,24.20
2017-06-03T14:45:46.275Z,24.50
2017-06-03T14:48:14.640Z,24.90
2017-06-03T14:50:42.925Z,25.20
2017-06-03T14:53:11.187Z,25.30
2017-06-03T14:55:39.463Z,25.30
2017-06-03T14:58:07.844Z,25.90
2017-06-03T15:00:36.200Z,26.60
2017-06-03T15:03:04.507Z,27.00
2017-06-03T15:05:32.910Z,27.00
2017-06-03T15:08:01.251Z,26.60
2017-06-03T15:10:29.531Z,26.20
2017-06-03T15:12:57.929Z,26.40
2017-06-03T15:15:27.007Z,27.00
2017-06-03T15:17:55.364Z,27.00
2017-06-03T15:20:23.624Z,27.70
2017-06-03T15:22:51.941Z,28.30
2017-06-03T15:25:20.209Z,28.30
2017-06-03T15:27:48.523Z,28.80
2017-06-03T15:30:17.586Z,28.70
2017-06-03T15:32:45.869Z,28.70
2017-06-03T15:35:14.162Z,29.20
2017-06-03T15:37:43.195Z,29.80
2017-06-03T15:40:11.506Z,29.70
2017-06-03T15:42:40.529Z,29.70
2017-06-03T15:45:08.829Z,29.60
2017-06-03T15:47:37.115Z,29.90
2017-06-03T15:50:05.376Z,30.10
2017-06-03T15:52:33.766Z,29.60
2017-06-03T15:55:02.029Z,29.40
2017-06-03T15:57:30.324Z,29.10
2017-06-03T15:59:58.593Z,28.50
2017-06-03T16:02:26.850Z,28.40
2017-06-03T16:04:55.142Z,28.10
2017-06-03T16:07:23.408Z,28.10
2017-06-03T16:09:51.707Z,27.70
2017-06-03T16:12:19.982Z,27.50
2017-06-03T16:14:48.365Z,27.70
2017-06-03T16:17:16.641Z,27.90
2017-06-03T16:19:44.941Z,28.00
2017-06-03T16:22:14.027Z,28.50
2017-06-03T16:24:42.406Z,28.50
2017-06-03T16:27:10.684Z,28.80
2017-06-03T16:29:39.050Z,29.10
2017-06-03T16:32:07.360Z,29.30
2017-06-03T16:34:36.395Z,28.90
2017-06-03T16:37:04.802Z,28.80
2017-06-03T16:39:33.082Z,28.40
2017-06-03T16:42:01.358Z,27.60
2017-06-03T16:44:29.738Z,26.80
2017-06-03T16:46:57.996Z,26.40
2017-06-03T16:49:26.290Z,26.00
2017-06-03T16:51:54.571Z,25.90
2017-06-03T16:54:22.850Z,25.90
2017-06-03T16:56:51.230Z,26.00
2017-06-03T16:59:20.322Z,25.90
2017-06-03T17:01:48.605Z,25.60
2017-06-03T17:04:16.975Z,25.50
2017-06-03T17:06:45.246Z,25.30
2017-06-03T17:09:13.518Z,25.20
2017-06-03T17:11:41.774Z,25.10
2017-06-03T17:14:10.088Z,24.70
2017-06-03T17:16:38.372Z,24.70
2017-06-03T17:19:06.736Z,24.50
2017-06-03T17:21:35.116Z,24.40
2017-06-03T17:24:03.407Z,24.20
2017-06-03T17:26:31.768Z,24.10
2017-06-03T17:29:00.059Z,23.90
2017-06-03T17:31:28.412Z,23.70
2017-06-03T17:33:56.685Z,23.70
2017-06-03T17:36:24.961Z,23.60
2017-06-03T17:38:53.258Z,23.50
2017-06-03T17:41:21.638Z,23.30
2017-06-03T17:43:49.915Z,23.20
2017-06-03T17:46:18.289Z,23.10
2017-06-03T17:48:46.674Z,23.10
2017-06-03T17:51:14.952Z,23.10
2017-06-03T17:53:43.242Z,23.00
2017-06-03T17:56:11.606Z,23.00
2017-06-03T17:58:39.896Z,22.90
2017-06-03T18:01:08.183Z,22.80
2017-06-03T18:03:36.545Z,22.60
2017-06-03T18:06:04.828Z,22.50
2017-06-03T18:08:33.112Z,22.40
2017-06-03T18:11:01.378Z,22.30
2017-06-03T18:13:29.655Z,22.30
2017-06-03T18:15:58.032Z,22.20
2017-06-03T18:18:26.412Z,22.20
2017-06-03T18:21:09.477Z,22.30
2017-06-03T18:23:37.753Z,22.20
2017-06-03T18:26:06.012Z,22.10
2017-06-03T18:28:35.106Z,21.90
2017-06-03T18:31:03.455Z,21.90
2017-06-03T18:33:31.842Z,21.90
2017-06-03T18:36:00.117Z,21.70
2017-06-03T18:38:28.486Z,21.60
2017-06-03T18:40:56.867Z,21.40
2017-06-03T18:43:25.154Z,21.40
2017-06-03T18:45:53.531Z,21.30
2017-06-03T18:48:21.794Z,21.10
2017-06-03T18:50:50.065Z,21.00
2017-06-03T18:53:18.324Z,20.90
2017-06-03T18:55:46.662Z,20.90
2017-06-03T18:58:15.729Z,20.80
2017-06-03T19:00:44.011Z,20.80
2017-06-03T19:03:12.393Z,20.70
2017-06-03T19:05:40.673Z,20.70
2017-06-03T19:08:08.949Z,20.70
2017-06-03T19:10:37.261Z,20.80
2017-06-03T19:13:05.540Z,20.80
2017-06-03T19:15:33.881Z,20.80
2017-06-03T19:18:02.164Z,20.80
2017-06-03T19:20:30.432Z,20.70
2017-06-03T19:22:58.800Z,20.70
2017-06-03T19:25:27.072Z,20.60
2017-06-03T19:27:55.458Z,20.50
2017-06-03T19:30:23.746Z,20.50
2017-06-03T19:32:52.119Z,20.50
2017-06-03T19:35:20.394Z,20.40
2017-06-03T19:37:48.777Z,20.30
2017-06-03T19:40:17.041Z,20.40
2017-06-03T19:42:45.318Z,20.40
2017-06-03T19:45:13.600Z,20.40
2017-06-03T19:47:41.989Z,20.30
2017-06-03T19:50:10.364Z,20.30
2017-06-03T19:52:38.749Z,20.30
2017-06-03T19:55:07.125Z,20.30
2017-06-03T19:57:35.502Z,20.40
2017-06-03T20:00:03.804Z,20.40
2017-06-03T20:02:32.893Z,20.40
2017-06-03T20:05:01.937Z,20.40
2017-06-03T20:07:30.230Z,20.40
2017-06-03T20:09:58.528Z,20.40
2017-06-03T20:12:26.830Z,20.40
2017-06-03T20:14:55.901Z,20.40
2017-06-03T20:17:24.282Z,20.40
2017-06-03T20:19:52.573Z,20.40
2017-06-03T20:22:21.622Z,20.40
2017-06-03T20:24:50.033Z,20.40
2017-06-03T20:27:18.413Z,20.40
2017-06-03T20:29:46.684Z,20.50
2017-06-03T20:32:14.969Z,20.40
2017-06-03T20:34:43.362Z,20.40
2017-06-03T20:37:12.448Z,20.40
2017-06-03T20:39:40.725Z,20.40
2017-06-03T20:42:08.985Z,20.40
2017-06-03T20:44:37.370Z,20.40
2017-06-03T20:47:05.653Z,20.40
2017-06-03T20:49:34.020Z,20.50
2017-06-03T20:52:02.401Z,20.50
2017-06-03T20:54:30.693Z,20.50
2017-06-03T20:56:58.961Z,20.50
2017-06-03T20:59:27.226Z,20.40
2017-06-03T21:01:55.514Z,20.40
2017-06-03T21:04:23.794Z,20.40
2017-06-03T21:06:52.106Z,20.40
2017-06-03T21:09:21.157Z,20.40
2017-06-03T21:11:49.561Z,20.40
2017-06-03T21:14:17.859Z,20.40
2017-06-03T21:16:46.207Z,20.40
2017-06-03T21:19:14.506Z,20.50
2017-06-03T21:21:43.582Z,20.50
2017-06-03T21:24:11.887Z,20.50
2017-06-03T21:26:40.243Z,20.50
2017-06-03T21:29:08.564Z,20.50
2017-06-03T21:31:36.888Z,20.60
2017-06-03T21:34:05.258Z,20.50
2017-06-03T21:36:33.634Z,20.50
2017-06-03T21:39:01.912Z,20.50
2017-06-03T21:41:30.199Z,20.50
2017-06-03T21:43:58.569Z,20.50
2017-06-03T21:46:26.970Z,20.50
2017-06-03T21:48:56.008Z,20.50
2017-06-03T21:51:24.273Z,20.50
2017-06-03T21:53:52.606Z,20.50
2017-06-03T21:56:20.872Z,20.50
2017-06-03T21:58:49.166Z,20.40
2017-06-03T22:01:17.459Z,20.40
2017-06-03T22:03:45.756Z,20.40
2017-06-03T22:06:14.029Z,20.40
2017-06-03T22:08:42.311Z,20.40
2017-06-03T22:11:10.609Z,20.40
2017-06-03T22:13:38.879Z,20.40
2017-06-03T22:16:07.259Z,20.40
2017-06-03T22:18:35.537Z,20.30
2017-06-03T22:21:03.842Z,20.30
2017-06-03T22:23:33.013Z,20.30
2017-06-03T22:26:01.284Z,20.30
2017-06-03T22:28:29.667Z,20.20
2017-06-03T22:30:57.950Z,20.20
2017-06-03T22:33:26.242Z,20.20
2017-06-03T22:35:54.608Z,20.20
2017-06-03T22:38:22.924Z,20.20
2017-06-03T22:40:51.961Z,20.00
2017-06-03T22:43:20.234Z,20.00
2017-06-03T22:45:48.629Z,20.10
2017-06-03T22:48:16.912Z,20.10
2017-06-03T22:50:45.207Z,20.00
2017-06-03T22:53:13.475Z,20.00
2017-06-03T22:55:41.888Z,20.00
2017-06-03T22:58:10.169Z,19.90
2017-06-03T23:00:38.473Z,19.90
2017-06-03T23:03:07.533Z,19.80
2017-06-03T23:05:35.809Z,19.80
2017-06-03T23:08:04.190Z,19.80
2017-06-03T23:10:32.465Z,19.80
2017-06-03T23:13:00.789Z,19.80
2017-06-03T23:15:29.068Z,19.80
2017-06-03T23:17:57.341Z,19.80
2017-06-03T23:20:25.652Z,19.80
2017-06-03T23:22:53.953Z,19.80
2017-06-03T23:25:22.244Z,19.80
2017-06-03T23:27:51.277Z,19.80
2017-06-03T23:30:19.580Z,19.80
2017-06-03T23:32:47.858Z,19.80
2017-06-03T23:35:16.125Z,19.70
2017-06-03T23:37:44.416Z,19.70
2017-06-03T23:40:12.702Z,19.60
2017-06-03T23:42:41.008Z,19.70
2017-06-03T23:45:10.085Z,19.60
2017-06-03T23:47:38.462Z,19.60
2017-06-03T23:50:06.740Z,19.60
2017-06-03T23:52:35.036Z,19.70
2017-06-03T23:55:04.109Z,19.70
2017-06-03T23:57:32.488Z,19.70
